Time;durP1;ratioP1;P1;durP2;ratioP2;P2;SDS_P1;SDS_P2;PMS_P1;PMS_P2;Temp;Humidity;BMP_temperature;BMP_pressure;BME280_temperature;BME280_humidity;BME280_pressure;Samples;Min_cycle;Max_cycle;Signal;HPM_P1;HPM_P2
2022/03/28 00:00:00;;;;;;;51.45;26.80;;;;;;;;;;5075554;28;20032;-61
2022/03/28 00:02:25;;;;;;;66.10;30.25;;;;;;;;;;5075592;28;20031;-69
2022/03/28 00:04:51;;;;;;;100.60;49.47;;;;;;;;;;5075612;28;20036;-69
2022/03/28 00:07:16;;;;;;;132.05;66.70;;;;;;;;;;5075595;28;20024;-69
2022/03/28 00:09:41;;;;;;;67.50;35.58;;;;;;;;;;5075098;28;20052;-69
2022/03/28 00:12:07;;;;;;;61.63;31.38;;;;;;;;;;5075373;28;20502;-69
2022/03/28 00:14:33;;;;;;;55.40;27.33;;;;;;;;;;5073922;28;20114;-69
2022/03/28 00:16:59;;;;;;;49.42;26.30;;;;;;;;;;5075186;28;20093;-69
2022/03/28 00:19:24;;;;;;;104.07;43.78;;;;;;;;;;5075173;28;20414;-69
2022/03/28 00:21:51;;;;;;;133.75;72.18;;;;;;;;;;5075033;28;20058;-69
2022/03/28 00:24:16;;;;;;;134.90;72.95;;;;;;;;;;5057132;28;20490;-61
2022/03/28 00:26:43;;;;;;;142.68;72.05;;;;;;;;;;5074832;28;20036;-61
2022/03/28 00:29:08;;;;;;;85.32;37.45;;;;;;;;;;5074870;28;20078;-62
2022/03/28 00:31:34;;;;;;;57.45;28.52;;;;;;;;;;5057063;28;20397;-61
2022/03/28 00:33:59;;;;;;;48.08;25.67;;;;;;;;;;5057094;28;20098;-62
2022/03/28 00:36:24;;;;;;;57.03;29.02;;;;;;;;;;5074966;28;20035;-62
2022/03/28 00:38:51;;;;;;;57.08;27.33;;;;;;;;;;5074957;28;20032;-62
2022/03/28 00:41:16;;;;;;;55.78;26.58;;;;;;;;;;5074252;28;20043;-61
2022/03/28 00:43:43;;;;;;;69.97;33.67;;;;;;;;;;5074549;28;20040;-61
2022/03/28 00:46:09;;;;;;;86.30;43.22;;;;;;;;;;5074447;28;20037;-61
2022/03/28 00:48:34;;;;;;;57.40;29.60;;;;;;;;;;5074245;28;20059;-61
2022/03/28 00:51:01;;;;;;;53.40;27.92;;;;;;;;;;5074451;28;20049;-61
2022/03/28 00:53:28;;;;;;;54.65;27.58;;;;;;;;;;5074332;28;20419;-69
2022/03/28 00:55:54;;;;;;;56.55;28.95;;;;;;;;;;5074310;28;20044;-62
2022/03/28 00:58:19;;;;;;;57.35;29.65;;;;;;;;;;5074432;28;20387;-61
2022/03/28 01:00:45;;;;;;;48.50;23.85;;;;;;;;;;5056565;28;20032;-62
2022/03/28 01:03:10;;;;;;;40.97;22.00;;;;;;;;;;5073949;28;20090;-61
2022/03/28 01:05:36;;;;;;;35.22;19.92;;;;;;;;;;5074396;28;20106;-62
2022/03/28 01:08:01;;;;;;;43.15;23.42;;;;;;;;;;5073969;28;20487;-62
2022/03/28 01:10:27;;;;;;;52.78;25.83;;;;;;;;;;5074153;28;20425;-69
2022/03/28 01:12:53;;;;;;;33.00;17.98;;;;;;;;;;5074123;28;20040;-69
2022/03/28 01:15:18;;;;;;;30.02;17.25;;;;;;;;;;5074081;28;20455;-69
2022/03/28 01:20:29;;;;;;;33.22;19.60;;;;;;;;;;5074252;28;20051;-69
2022/03/28 01:22:55;;;;;;;32.80;17.38;;;;;;;;;;5074072;28;20036;-69
2022/03/28 01:25:24;;;;;;;39.45;21.33;;;;;;;;;;5073755;28;20064;-69
2022/03/28 01:27:52;;;;;;;32.78;17.95;;;;;;;;;;5074012;28;20048;-69
2022/03/28 01:30:19;;;;;;;31.58;16.90;;;;;;;;;;5073941;28;20040;-61
2022/03/28 01:32:46;;;;;;;27.90;15.95;;;;;;;;;;5073668;28;20074;-61
2022/03/28 01:35:12;;;;;;;23.83;14.07;;;;;;;;;;5055820;28;20490;-69
2022/03/28 01:37:37;;;;;;;27.80;15.20;;;;;;;;;;5073823;28;20111;-70
2022/03/28 01:40:04;;;;;;;29.73;15.73;;;;;;;;;;5073649;28;20044;-70
2022/03/28 01:42:29;;;;;;;31.90;17.50;;;;;;;;;;5073267;28;20133;-69
2022/03/28 01:44:57;;;;;;;31.17;17.30;;;;;;;;;;5073724;28;20091;-69
2022/03/28 01:47:25;;;;;;;28.65;15.60;;;;;;;;;;5073640;28;20036;-69
2022/03/28 01:49:50;;;;;;;35.33;17.17;;;;;;;;;;5073351;28;20044;-69
2022/03/28 01:52:17;;;;;;;28.27;15.93;;;;;;;;;;5073501;28;20039;-69
2022/03/28 01:54:42;;;;;;;26.38;15.77;;;;;;;;;;5073405;28;20708;-68
2022/03/28 01:57:09;;;;;;;31.52;17.70;;;;;;;;;;5073458;28;20032;-68
2022/03/28 01:59:34;;;;;;;35.38;19.00;;;;;;;;;;5073331;28;20072;-68
2022/03/28 02:02:00;;;;;;;48.05;22.35;;;;;;;;;;5073531;28;20076;-68
2022/03/28 02:04:25;;;;;;;49.83;27.48;;;;;;;;;;5055293;28;20075;-68
2022/03/28 02:06:51;;;;;;;32.38;17.80;;;;;;;;;;5073384;28;20363;-69
2022/03/28 02:09:16;;;;;;;37.38;20.90;;;;;;;;;;5073209;28;20043;-69
2022/03/28 02:11:42;;;;;;;31.30;17.20;;;;;;;;;;5073159;28;20116;-68
2022/03/28 02:14:08;;;;;;;33.47;18.23;;;;;;;;;;5073285;28;20032;-68
2022/03/28 02:16:34;;;;;;;37.47;20.25;;;;;;;;;;5072870;28;20493;-68
2022/03/28 02:18:59;;;;;;;71.90;32.50;;;;;;;;;;5055087;28;20033;-67
2022/03/28 02:21:24;;;;;;;51.58;26.60;;;;;;;;;;5073278;28;20039;-68
2022/03/28 02:23:50;;;;;;;36.30;20.55;;;;;;;;;;5055220;28;20048;-67
2022/03/28 02:26:15;;;;;;;42.75;20.60;;;;;;;;;;5073236;28;20114;-68
2022/03/28 02:28:41;;;;;;;35.60;18.63;;;;;;;;;;5073142;28;20064;-67
2022/03/28 02:31:06;;;;;;;34.28;19.55;;;;;;;;;;5073322;28;20033;-68
2022/03/28 02:33:33;;;;;;;37.33;17.77;;;;;;;;;;5073215;28;20090;-68
2022/03/28 02:35:58;;;;;;;37.20;18.25;;;;;;;;;;5073173;28;20032;-68
2022/03/28 02:38:24;;;;;;;34.72;18.25;;;;;;;;;;5075999;28;20033;-68
2022/03/28 02:40:49;;;;;;;31.00;17.70;;;;;;;;;;5076660;28;20036;-62
2022/03/28 02:43:15;;;;;;;29.63;17.42;;;;;;;;;;5059108;28;20040;-61
2022/03/28 02:45:40;;;;;;;32.08;16.85;;;;;;;;;;5076844;28;20072;-61
2022/03/28 02:48:06;;;;;;;35.10;18.25;;;;;;;;;;5076721;28;20035;-61
2022/03/28 02:50:33;;;;;;;32.35;17.13;;;;;;;;;;5076964;28;20032;-61
2022/03/28 02:52:59;;;;;;;39.30;19.25;;;;;;;;;;5076630;28;20486;-61
2022/03/28 02:55:24;;;;;;;43.85;22.50;;;;;;;;;;5076662;28;20095;-61
2022/03/28 02:57:49;;;;;;;38.25;19.60;;;;;;;;;;5076638;28;20032;-61
2022/03/28 03:00:15;;;;;;;33.10;18.50;;;;;;;;;;5076544;28;20036;-61
2022/03/28 03:02:42;;;;;;;39.35;18.83;;;;;;;;;;5076654;28;20040;-61
2022/03/28 03:05:11;;;;;;;38.97;20.92;;;;;;;;;;5076480;28;20025;-61
2022/03/28 03:07:37;;;;;;;34.15;19.30;;;;;;;;;;5076565;28;20043;-61
2022/03/28 03:10:03;;;;;;;33.35;18.88;;;;;;;;;;5076721;28;20032;-68
2022/03/28 03:12:28;;;;;;;38.53;20.05;;;;;;;;;;5076328;28;20028;-67
2022/03/28 03:14:53;;;;;;;38.38;18.70;;;;;;;;;;5076283;28;20485;-70
2022/03/28 03:17:20;;;;;;;34.47;17.58;;;;;;;;;;5076531;28;20044;-69
2022/03/28 03:19:45;;;;;;;36.03;18.15;;;;;;;;;;5076444;28;20051;-70
2022/03/28 03:22:12;;;;;;;36.22;19.60;;;;;;;;;;5076258;28;20050;-70
2022/03/28 03:24:37;;;;;;;41.15;19.98;;;;;;;;;;5076244;28;20035;-68
2022/03/28 03:27:03;;;;;;;36.08;19.77;;;;;;;;;;5058380;28;20040;-68
2022/03/28 03:29:28;;;;;;;38.03;19.88;;;;;;;;;;5076056;28;20509;-68
2022/03/28 03:31:54;;;;;;;39.30;20.48;;;;;;;;;;5075927;28;20494;-68
2022/03/28 03:34:19;;;;;;;39.70;19.17;;;;;;;;;;5076188;28;20020;-69
2022/03/28 03:36:45;;;;;;;36.47;19.83;;;;;;;;;;5075966;28;20036;-69
2022/03/28 03:39:10;;;;;;;39.05;19.83;;;;;;;;;;5076001;28;20509;-69
2022/03/28 03:41:36;;;;;;;43.55;20.50;;;;;;;;;;5075690;28;20044;-69
2022/03/28 03:44:02;;;;;;;41.65;21.17;;;;;;;;;;5075974;28;20040;-69
2022/03/28 03:46:27;;;;;;;40.95;21.45;;;;;;;;;;5075370;28;20127;-69
2022/03/28 03:48:52;;;;;;;47.15;23.52;;;;;;;;;;5075460;28;20037;-68
2022/03/28 03:51:18;;;;;;;39.67;21.00;;;;;;;;;;5075730;28;20028;-68
2022/03/28 03:53:44;;;;;;;44.08;21.05;;;;;;;;;;5075448;28;20494;-68
2022/03/28 03:56:09;;;;;;;40.67;20.27;;;;;;;;;;5057551;28;20078;-68
2022/03/28 03:58:35;;;;;;;47.40;23.45;;;;;;;;;;5075641;28;20060;-69
2022/03/28 04:01:01;;;;;;;42.05;21.85;;;;;;;;;;5075520;28;20619;-69
2022/03/28 04:03:26;;;;;;;47.53;24.73;;;;;;;;;;5075692;28;20547;-69
2022/03/28 04:05:52;;;;;;;52.17;25.40;;;;;;;;;;5075407;28;20425;-69
2022/03/28 04:08:17;;;;;;;47.15;25.15;;;;;;;;;;5057645;28;20025;-69
2022/03/28 04:10:43;;;;;;;51.58;28.33;;;;;;;;;;5075309;28;20567;-68
2022/03/28 04:13:10;;;;;;;60.17;33.67;;;;;;;;;;5075371;28;20028;-69
2022/03/28 04:15:36;;;;;;;58.42;30.73;;;;;;;;;;5075219;28;20024;-68
2022/03/28 04:18:02;;;;;;;51.72;28.40;;;;;;;;;;5075396;28;20039;-68
2022/03/28 04:20:29;;;;;;;57.03;30.92;;;;;;;;;;5075433;28;20036;-69
2022/03/28 04:22:55;;;;;;;63.78;34.95;;;;;;;;;;5074735;28;20036;-69
2022/03/28 04:25:21;;;;;;;61.30;34.90;;;;;;;;;;5075045;28;20033;-68
2022/03/28 04:27:46;;;;;;;65.75;34.90;;;;;;;;;;5074394;28;20027;-61
2022/03/28 04:30:12;;;;;;;71.38;41.47;;;;;;;;;;5074682;28;20398;-61
2022/03/28 04:32:38;;;;;;;83.07;46.60;;;;;;;;;;5074924;28;20090;-61
2022/03/28 04:35:04;;;;;;;95.22;55.58;;;;;;;;;;5074763;28;20583;-61
2022/03/28 04:37:34;;;;;;;102.28;60.22;;;;;;;;;;5074863;28;20356;-61
2022/03/28 04:40:00;;;;;;;83.07;46.80;;;;;;;;;;5074690;28;20048;-61
2022/03/28 04:42:26;;;;;;;93.32;53.47;;;;;;;;;;5074120;28;20080;-62
2022/03/28 04:44:52;;;;;;;93.15;53.35;;;;;;;;;;5056763;28;20056;-62
2022/03/28 04:47:17;;;;;;;82.90;47.95;;;;;;;;;;5074432;28;20033;-62
2022/03/28 04:49:43;;;;;;;82.10;48.65;;;;;;;;;;5074573;28;20037;-61
2022/03/28 04:52:09;;;;;;;92.50;51.58;;;;;;;;;;5074354;28;20028;-61
2022/03/28 04:54:36;;;;;;;112.93;64.07;;;;;;;;;;5074509;28;20115;-62
2022/03/28 04:57:03;;;;;;;101.47;57.05;;;;;;;;;;5074228;28;20028;-61
2022/03/28 04:59:28;;;;;;;97.72;56.22;;;;;;;;;;5073971;28;20115;-62
2022/03/28 05:01:53;;;;;;;87.40;50.95;;;;;;;;;;5074098;28;20451;-68
2022/03/28 05:04:19;;;;;;;90.20;51.67;;;;;;;;;;5074260;28;20036;-69
2022/03/28 05:06:44;;;;;;;71.57;40.03;;;;;;;;;;5074222;28;20056;-69
2022/03/28 05:09:10;;;;;;;74.75;42.95;;;;;;;;;;5039165;28;20029;-70
2022/03/28 05:11:35;;;;;;;76.35;43.42;;;;;;;;;;5055904;28;20479;-69
2022/03/28 05:14:02;;;;;;;77.53;43.63;;;;;;;;;;5074132;28;20037;-70
2022/03/28 05:16:27;;;;;;;63.35;36.47;;;;;;;;;;5073989;28;20032;-69
2022/03/28 05:18:52;;;;;;;50.28;26.40;;;;;;;;;;5073679;28;20063;-70
2022/03/28 05:21:18;;;;;;;49.75;28.05;;;;;;;;;;5073610;28;20111;-70
2022/03/28 05:23:44;;;;;;;52.85;29.90;;;;;;;;;;5073398;28;20486;-70
2022/03/28 05:26:09;;;;;;;55.97;28.90;;;;;;;;;;5038876;28;20344;-70
2022/03/28 05:28:36;;;;;;;56.22;30.02;;;;;;;;;;5055849;28;20399;-70
2022/03/28 05:31:01;;;;;;;55.72;30.92;;;;;;;;;;5073603;28;20112;-70
2022/03/28 05:33:27;;;;;;;59.30;31.10;;;;;;;;;;5055833;28;20132;-70
2022/03/28 05:35:54;;;;;;;53.50;28.45;;;;;;;;;;5073766;28;20028;-70
2022/03/28 05:38:20;;;;;;;52.10;27.00;;;;;;;;;;5072354;28;20032;-70
2022/03/28 05:40:46;;;;;;;50.65;27.65;;;;;;;;;;5073170;28;20028;-70
2022/03/28 05:43:12;;;;;;;55.63;26.88;;;;;;;;;;5081380;28;20051;-71
2022/03/28 05:45:37;;;;;;;59.42;30.30;;;;;;;;;;5083164;28;20040;-70
2022/03/28 05:48:03;;;;;;;56.90;30.05;;;;;;;;;;5081593;28;20090;-69
2022/03/28 05:50:29;;;;;;;59.05;31.70;;;;;;;;;;5081775;28;20043;-70
2022/03/28 05:52:54;;;;;;;59.88;31.10;;;;;;;;;;5083141;28;20040;-71
2022/03/28 05:55:20;;;;;;;60.55;31.63;;;;;;;;;;5078544;28;20071;-70
2022/03/28 05:57:46;;;;;;;57.70;29.85;;;;;;;;;;5082170;28;20052;-70
2022/03/28 06:00:13;;;;;;;56.58;28.73;;;;;;;;;;5082637;28;20040;-70
2022/03/28 06:02:39;;;;;;;61.78;28.67;;;;;;;;;;5080832;28;20064;-70
2022/03/28 06:05:06;;;;;;;61.78;28.52;;;;;;;;;;5082538;28;20032;-70
2022/03/28 06:07:31;;;;;;;55.03;26.33;;;;;;;;;;5076774;28;20474;-70
2022/03/28 06:09:57;;;;;;;51.63;24.40;;;;;;;;;;5077885;28;20035;-70
2022/03/28 06:12:23;;;;;;;54.00;26.23;;;;;;;;;;5070849;28;20382;-69
2022/03/28 06:14:48;;;;;;;48.30;23.88;;;;;;;;;;5071945;28;20531;-69
2022/03/28 06:17:21;;;;;;;48.65;23.20;;;;;;;;;;5071889;28;20128;-68
2022/03/28 06:19:47;;;;;;;47.33;23.52;;;;;;;;;;5072032;28;20086;-69
2022/03/28 06:22:12;;;;;;;48.47;25.48;;;;;;;;;;5071720;28;20422;-69
2022/03/28 06:24:38;;;;;;;60.28;29.35;;;;;;;;;;5071874;28;20064;-70
2022/03/28 06:27:03;;;;;;;53.63;27.27;;;;;;;;;;5071921;28;20491;-67
2022/03/28 06:29:28;;;;;;;50.15;24.42;;;;;;;;;;5065343;28;20036;-66
2022/03/28 06:31:54;;;;;;;41.50;21.48;;;;;;;;;;5067771;28;20444;-66
2022/03/28 06:34:19;;;;;;;46.72;23.13;;;;;;;;;;5067493;28;20035;-66
2022/03/28 06:36:45;;;;;;;45.15;22.75;;;;;;;;;;5067372;28;20056;-66
2022/03/28 06:39:11;;;;;;;42.45;20.75;;;;;;;;;;5067079;28;20438;-66
2022/03/28 06:41:37;;;;;;;42.15;19.90;;;;;;;;;;5024359;28;1228708;-66
2022/03/28 06:44:05;;;;;;;42.75;21.67;;;;;;;;;;5068033;28;20041;-66
2022/03/28 06:46:30;;;;;;;36.90;18.02;;;;;;;;;;5068067;28;20067;-65
2022/03/28 06:48:57;;;;;;;39.03;20.35;;;;;;;;;;5067780;28;20068;-66
2022/03/28 06:51:22;;;;;;;33.88;17.67;;;;;;;;;;5050009;28;20063;-66
2022/03/28 06:53:49;;;;;;;38.00;17.85;;;;;;;;;;5067946;28;20455;-66
2022/03/28 06:56:15;;;;;;;33.85;17.73;;;;;;;;;;5068025;28;20035;-66
2022/03/28 06:58:41;;;;;;;36.20;18.80;;;;;;;;;;5067591;28;20071;-66
2022/03/28 07:01:07;;;;;;;40.95;20.23;;;;;;;;;;5067867;28;20052;-66
2022/03/28 07:03:33;;;;;;;33.47;17.63;;;;;;;;;;5067867;28;20481;-66
2022/03/28 07:05:59;;;;;;;34.63;18.30;;;;;;;;;;5067904;28;20128;-66
2022/03/28 07:08:24;;;;;;;28.35;15.35;;;;;;;;;;5067943;28;20116;-66
2022/03/28 07:10:49;;;;;;;29.20;14.73;;;;;;;;;;5067863;28;20548;-67
2022/03/28 07:13:15;;;;;;;31.65;15.85;;;;;;;;;;5067754;28;20040;-66
2022/03/28 07:15:40;;;;;;;30.23;15.45;;;;;;;;;;5068057;28;20037;-66
2022/03/28 07:18:07;;;;;;;32.08;15.73;;;;;;;;;;5067697;28;20555;-66
2022/03/28 07:20:33;;;;;;;27.95;15.18;;;;;;;;;;5067627;28;20036;-66
2022/03/28 07:22:59;;;;;;;33.88;17.73;;;;;;;;;;5068143;28;20502;-66
2022/03/28 07:25:25;;;;;;;33.97;17.75;;;;;;;;;;5071327;28;20040;-66
2022/03/28 07:27:52;;;;;;;40.38;16.88;;;;;;;;;;5071760;28;20379;-66
2022/03/28 07:30:17;;;;;;;31.60;16.25;;;;;;;;;;5071167;28;20036;-66
2022/03/28 07:32:44;;;;;;;29.80;14.20;;;;;;;;;;5071426;28;20050;-66
2022/03/28 07:35:10;;;;;;;33.75;16.35;;;;;;;;;;5071181;28;20058;-66
2022/03/28 07:37:37;;;;;;;39.78;16.23;;;;;;;;;;5071229;28;20136;-66
2022/03/28 07:40:03;;;;;;;38.15;17.85;;;;;;;;;;5070816;28;20043;-66
2022/03/28 07:42:30;;;;;;;32.08;16.02;;;;;;;;;;5072495;28;20052;-66
2022/03/28 07:44:57;;;;;;;39.67;18.02;;;;;;;;;;5070827;28;20086;-66
2022/03/28 07:47:25;;;;;;;33.92;17.00;;;;;;;;;;5070779;28;20052;-66
2022/03/28 07:49:52;;;;;;;43.05;19.02;;;;;;;;;;5070728;28;20032;-66
2022/03/28 07:52:18;;;;;;;37.30;17.63;;;;;;;;;;5070781;28;20155;-65
2022/03/28 07:54:43;;;;;;;36.03;18.00;;;;;;;;;;5070782;28;20115;-66
2022/03/28 07:57:08;;;;;;;44.38;19.33;;;;;;;;;;5070715;28;20059;-66
2022/03/28 07:59:34;;;;;;;44.60;19.35;;;;;;;;;;5070564;28;20055;-64
2022/03/28 08:01:59;;;;;;;43.67;17.20;;;;;;;;;;5070743;28;20048;-64
2022/03/28 08:04:25;;;;;;;37.67;16.77;;;;;;;;;;5070630;28;20490;-64
2022/03/28 08:06:50;;;;;;;38.50;17.65;;;;;;;;;;5070651;28;20119;-64
2022/03/28 08:09:17;;;;;;;39.13;16.08;;;;;;;;;;5070198;28;20025;-65
2022/03/28 08:11:42;;;;;;;37.65;15.82;;;;;;;;;;5052315;28;20036;-65
2022/03/28 08:14:08;;;;;;;42.03;16.85;;;;;;;;;;5070482;28;20036;-65
2022/03/28 08:16:34;;;;;;;33.10;13.95;;;;;;;;;;5070403;28;20102;-65
2022/03/28 08:18:59;;;;;;;33.92;13.98;;;;;;;;;;5070225;28;20078;-65
2022/03/28 08:21:25;;;;;;;34.83;12.98;;;;;;;;;;5069862;28;20123;-67
2022/03/28 08:23:50;;;;;;;30.85;13.20;;;;;;;;;;5070430;28;20402;-66
2022/03/28 08:26:16;;;;;;;29.65;13.20;;;;;;;;;;5052311;28;20040;-66
2022/03/28 08:28:42;;;;;;;34.63;13.60;;;;;;;;;;5069870;28;20036;-66
2022/03/28 08:31:08;;;;;;;28.77;13.35;;;;;;;;;;5052023;28;20044;-66
2022/03/28 08:33:33;;;;;;;31.85;12.82;;;;;;;;;;5069980;28;20045;-66
2022/03/28 08:35:59;;;;;;;39.50;15.48;;;;;;;;;;5069088;28;20044;-66
2022/03/28 08:38:24;;;;;;;34.28;14.05;;;;;;;;;;5051982;28;20406;-65
2022/03/28 08:40:50;;;;;;;30.65;13.00;;;;;;;;;;5069605;28;20051;-64
2022/03/28 08:43:20;;;;;;;35.17;13.82;;;;;;;;;;5069625;28;20036;-64
2022/03/28 08:45:45;;;;;;;31.60;12.85;;;;;;;;;;5069796;28;20043;-64
2022/03/28 08:48:12;;;;;;;27.65;11.65;;;;;;;;;;5070426;28;20029;-65
2022/03/28 08:50:45;;;;;;;31.85;12.80;;;;;;;;;;5069589;28;20132;-65
2022/03/28 08:53:11;;;;;;;35.20;13.50;;;;;;;;;;5071146;28;20409;-64
2022/03/28 08:55:40;;;;;;;33.88;12.82;;;;;;;;;;5071144;28;20135;-64
2022/03/28 08:58:06;;;;;;;28.40;13.02;;;;;;;;;;5070876;28;20107;-64
2022/03/28 09:00:31;;;;;;;31.98;12.75;;;;;;;;;;5052502;28;20055;-65
2022/03/28 09:02:57;;;;;;;18.30;9.27;;;;;;;;;;5070834;28;20113;-64
2022/03/28 09:05:29;;;;;;;28.05;12.35;;;;;;;;;;5070834;28;20028;-65
2022/03/28 09:07:58;;;;;;;27.23;11.73;;;;;;;;;;5070829;28;20066;-64
2022/03/28 09:10:24;;;;;;;26.17;11.30;;;;;;;;;;5070653;28;20020;-64
2022/03/28 09:12:59;;;;;;;27.13;10.82;;;;;;;;;;5070793;28;20091;-64
2022/03/28 09:15:24;;;;;;;23.58;11.15;;;;;;;;;;5052574;28;20036;-65
2022/03/28 09:17:57;;;;;;;29.15;11.32;;;;;;;;;;5070217;28;20111;-65
2022/03/28 09:20:23;;;;;;;23.95;10.98;;;;;;;;;;5070557;28;20053;-65
2022/03/28 09:22:49;;;;;;;24.85;11.65;;;;;;;;;;5070181;28;20037;-65
2022/03/28 09:25:16;;;;;;;22.52;9.57;;;;;;;;;;5070596;28;20047;-64
2022/03/28 09:27:44;;;;;;;20.85;9.10;;;;;;;;;;5070351;28;20136;-65
2022/03/28 09:30:14;;;;;;;15.93;8.00;;;;;;;;;;5070263;28;20052;-65
2022/03/28 09:32:41;;;;;;;20.65;8.55;;;;;;;;;;5070325;28;20040;-65
2022/03/28 09:35:12;;;;;;;17.75;7.80;;;;;;;;;;5070393;28;20039;-65
2022/03/28 09:37:50;;;;;;;20.60;9.57;;;;;;;;;;5069880;28;20520;-59
2022/03/28 09:40:22;;;;;;;17.40;7.88;;;;;;;;;;5063543;28;20078;-59
2022/03/28 09:42:48;;;;;;;20.80;9.77;;;;;;;;;;5069952;28;20055;-59
2022/03/28 09:45:29;;;;;;;18.63;8.38;;;;;;;;;;5070167;28;20045;-59
2022/03/28 09:47:56;;;;;;;22.98;9.95;;;;;;;;;;5070210;28;20079;-59
2022/03/28 09:50:35;;;;;;;15.77;8.13;;;;;;;;;;5070139;28;20043;-59
2022/03/28 09:53:10;;;;;;;17.80;6.60;;;;;;;;;;5070134;28;20083;-59
2022/03/28 09:55:54;;;;;;;16.77;8.00;;;;;;;;;;5070460;28;20535;-59
2022/03/28 09:58:38;;;;;;;18.63;8.07;;;;;;;;;;5070094;28;20036;-59
2022/03/28 10:01:05;;;;;;;14.55;6.45;;;;;;;;;;5069993;28;20072;-59
2022/03/28 10:03:33;;;;;;;14.50;7.05;;;;;;;;;;5067612;28;20736;-60
2022/03/28 10:05:59;;;;;;;18.08;7.72;;;;;;;;;;5070064;28;20067;-60
2022/03/28 10:08:26;;;;;;;17.02;8.30;;;;;;;;;;5069965;28;20756;-59
2022/03/28 10:10:51;;;;;;;13.25;6.82;;;;;;;;;;5069450;28;20040;-60
2022/03/28 10:13:18;;;;;;;6.90;3.92;;;;;;;;;;5070183;28;20045;-60
2022/03/28 10:15:43;;;;;;;14.95;7.28;;;;;;;;;;5070009;28;20097;-60
2022/03/28 10:18:09;;;;;;;17.25;7.47;;;;;;;;;;5069804;28;20032;-60
2022/03/28 10:20:35;;;;;;;8.85;4.43;;;;;;;;;;5070030;28;20391;-60
2022/03/28 10:23:01;;;;;;;11.80;5.93;;;;;;;;;;5069632;28;20028;-60
2022/03/28 10:25:27;;;;;;;14.75;7.15;;;;;;;;;;5069546;28;20051;-60
2022/03/28 10:27:53;;;;;;;13.75;7.00;;;;;;;;;;5069268;28;20032;-60
2022/03/28 10:30:19;;;;;;;14.38;6.70;;;;;;;;;;5069144;28;20115;-60
2022/03/28 10:32:45;;;;;;;10.73;6.35;;;;;;;;;;5069835;28;20085;-60
2022/03/28 10:35:10;;;;;;;9.50;6.45;;;;;;;;;;5069576;28;20044;-60
2022/03/28 10:37:36;;;;;;;8.57;5.03;;;;;;;;;;5069673;28;20037;-60
2022/03/28 10:40:16;;;;;;;15.55;6.47;;;;;;;;;;5069607;28;20045;-60
2022/03/28 10:42:48;;;;;;;13.00;5.45;;;;;;;;;;5068980;28;20182;-60
2022/03/28 10:45:19;;;;;;;11.32;5.95;;;;;;;;;;5051713;28;20035;-60
2022/03/28 10:47:44;;;;;;;11.00;5.78;;;;;;;;;;5069660;28;20386;-59
2022/03/28 10:50:13;;;;;;;12.43;6.25;;;;;;;;;;5069439;28;20041;-60
2022/03/28 10:52:59;;;;;;;9.45;5.82;;;;;;;;;;5070100;28;20102;-60
2022/03/28 10:55:32;;;;;;;9.75;6.20;;;;;;;;;;5069742;28;20064;-60
2022/03/28 10:58:15;;;;;;;11.93;6.53;;;;;;;;;;5070486;28;20477;-60
2022/03/28 11:00:59;;;;;;;9.77;4.88;;;;;;;;;;5073652;28;20401;-60
2022/03/28 11:03:43;;;;;;;10.35;4.78;;;;;;;;;;5055390;28;20044;-60
2022/03/28 11:06:10;;;;;;;9.35;5.57;;;;;;;;;;5073106;28;20048;-60
2022/03/28 11:08:37;;;;;;;8.45;5.28;;;;;;;;;;5073005;28;20033;-60
2022/03/28 11:11:31;;;;;;;10.48;5.70;;;;;;;;;;5073306;28;20090;-60
2022/03/28 11:13:59;;;;;;;13.48;5.88;;;;;;;;;;5070030;28;20055;-60
2022/03/28 11:16:43;;;;;;;12.18;6.18;;;;;;;;;;5073022;28;20040;-59
2022/03/28 11:19:29;;;;;;;8.98;5.15;;;;;;;;;;5073137;28;20150;-60
2022/03/28 11:22:04;;;;;;;7.43;4.63;;;;;;;;;;5073030;28;20482;-59
2022/03/28 11:24:46;;;;;;;9.63;5.20;;;;;;;;;;5073018;28;20045;-59
2022/03/28 11:27:13;;;;;;;8.15;4.28;;;;;;;;;;5072936;28;20036;-59
2022/03/28 11:29:38;;;;;;;9.32;4.80;;;;;;;;;;5072755;28;20016;-59
2022/03/28 11:32:08;;;;;;;6.93;4.60;;;;;;;;;;5072974;28;20051;-60
2022/03/28 11:34:34;;;;;;;9.68;4.57;;;;;;;;;;5072439;28;20068;-59
2022/03/28 11:37:00;;;;;;;6.88;2.95;;;;;;;;;;5054524;28;20068;-59
2022/03/28 11:39:27;;;;;;;8.32;4.63;;;;;;;;;;5072476;28;20048;-59
2022/03/28 11:41:53;;;;;;;9.60;4.85;;;;;;;;;;5072338;28;20076;-59
2022/03/28 11:44:19;;;;;;;6.78;4.40;;;;;;;;;;5072436;28;20076;-59
2022/03/28 11:46:52;;;;;;;10.18;5.07;;;;;;;;;;5072318;28;20041;-59
2022/03/28 11:49:18;;;;;;;4.85;2.55;;;;;;;;;;5072398;28;20037;-60
2022/03/28 11:51:44;;;;;;;8.23;4.63;;;;;;;;;;5072345;28;20102;-60
2022/03/28 11:54:12;;;;;;;8.63;4.30;;;;;;;;;;5072304;28;20036;-60
2022/03/28 11:59:25;;;;;;;5.18;2.75;;;;;;;;;;5020034;28;20084;-59
2022/03/28 12:01:57;;;;;;;5.85;3.65;;;;;;;;;;5054245;28;20469;-59
2022/03/28 12:04:23;;;;;;;5.78;3.05;;;;;;;;;;5072118;28;20122;-59
2022/03/28 12:06:50;;;;;;;6.38;4.10;;;;;;;;;;5072169;28;20538;-60
2022/03/28 12:09:16;;;;;;;8.55;4.68;;;;;;;;;;5071783;28;20037;-59
2022/03/28 12:11:46;;;;;;;10.25;4.40;;;;;;;;;;5053962;28;20446;-59
2022/03/28 12:14:11;;;;;;;5.78;3.97;;;;;;;;;;5072095;28;20584;-59
2022/03/28 12:16:47;;;;;;;2.47;2.22;;;;;;;;;;5072078;28;20033;-59
2022/03/28 12:19:30;;;;;;;8.32;3.95;;;;;;;;;;5072056;28;20045;-59
2022/03/28 12:21:58;;;;;;;7.13;4.13;;;;;;;;;;5071959;28;20715;-59
2022/03/28 12:24:25;;;;;;;6.95;4.07;;;;;;;;;;5071731;28;20504;-59
2022/03/28 12:26:51;;;;;;;7.32;4.00;;;;;;;;;;5071809;28;20498;-59
2022/03/28 12:29:17;;;;;;;8.30;3.88;;;;;;;;;;5071759;28;20025;-59
2022/03/28 12:31:47;;;;;;;6.45;4.50;;;;;;;;;;5071488;28;20045;-59
2022/03/28 12:34:13;;;;;;;10.90;4.63;;;;;;;;;;5071866;28;20031;-60
2022/03/28 12:36:39;;;;;;;7.68;4.50;;;;;;;;;;5071697;28;20045;-60
2022/03/28 12:39:09;;;;;;;8.38;4.97;;;;;;;;;;5071273;28;20041;-59
2022/03/28 12:41:41;;;;;;;6.25;3.22;;;;;;;;;;5070891;28;20037;-60
2022/03/28 12:44:12;;;;;;;12.48;5.45;;;;;;;;;;5036818;28;20127;-59
2022/03/28 12:46:37;;;;;;;12.85;5.88;;;;;;;;;;5071113;28;20045;-60
2022/03/28 12:49:07;;;;;;;5.50;2.95;;;;;;;;;;5071311;28;20035;-59
2022/03/28 12:51:36;;;;;;;6.55;3.95;;;;;;;;;;5053233;28;20044;-60
2022/03/28 12:54:05;;;;;;;13.50;5.53;;;;;;;;;;5070949;28;20040;-59
2022/03/28 12:56:44;;;;;;;6.82;4.85;;;;;;;;;;5070751;28;20262;-60
2022/03/28 12:59:10;;;;;;;7.13;4.55;;;;;;;;;;5070960;28;20077;-59
2022/03/28 13:01:36;;;;;;;5.82;3.83;;;;;;;;;;5070866;28;20028;-60
2022/03/28 13:04:09;;;;;;;10.05;4.82;;;;;;;;;;5071267;28;20056;-59
2022/03/28 13:06:36;;;;;;;6.75;4.03;;;;;;;;;;5052788;28;20048;-60
2022/03/28 13:09:04;;;;;;;8.15;4.32;;;;;;;;;;5069806;28;20024;-61
2022/03/28 13:11:32;;;;;;;9.40;4.88;;;;;;;;;;5070501;28;20149;-60
2022/03/28 13:13:57;;;;;;;5.57;3.85;;;;;;;;;;5070402;28;20550;-59
2022/03/28 13:16:24;;;;;;;8.15;4.80;;;;;;;;;;5070587;28;20127;-60
2022/03/28 13:18:56;;;;;;;6.82;4.03;;;;;;;;;;5070786;28;20036;-60
2022/03/28 13:21:21;;;;;;;6.40;3.67;;;;;;;;;;5070142;28;20644;-60
2022/03/28 13:23:47;;;;;;;6.07;4.32;;;;;;;;;;5070291;28;20123;-60
2022/03/28 13:26:17;;;;;;;7.57;4.40;;;;;;;;;;5070370;28;20071;-59
2022/03/28 13:28:43;;;;;;;10.95;4.88;;;;;;;;;;5070587;28;20048;-60
2022/03/28 13:31:10;;;;;;;6.40;3.70;;;;;;;;;;5070367;28;20356;-60
2022/03/28 13:33:35;;;;;;;6.82;4.82;;;;;;;;;;5052229;28;20465;-60
2022/03/28 13:36:01;;;;;;;7.60;3.97;;;;;;;;;;5070457;28;20064;-60
2022/03/28 13:38:26;;;;;;;8.93;4.15;;;;;;;;;;5070526;28;20036;-60
2022/03/28 13:40:59;;;;;;;6.97;4.20;;;;;;;;;;5070104;28;20037;-60
2022/03/28 13:43:27;;;;;;;9.57;5.65;;;;;;;;;;5070064;28;20083;-60
2022/03/28 13:45:52;;;;;;;7.70;4.72;;;;;;;;;;5069857;28;20036;-61
2022/03/28 13:48:21;;;;;;;5.32;4.03;;;;;;;;;;5070192;28;20509;-60
2022/03/28 13:50:47;;;;;;;8.07;4.38;;;;;;;;;;5070414;28;20366;-60
2022/03/28 13:53:13;;;;;;;10.15;5.18;;;;;;;;;;5070394;28;20108;-60
2022/03/28 13:55:38;;;;;;;8.95;5.10;;;;;;;;;;5052045;28;20127;-60
2022/03/28 13:58:04;;;;;;;7.78;4.50;;;;;;;;;;5070430;28;20058;-60
2022/03/28 14:00:31;;;;;;;11.75;4.75;;;;;;;;;;5069910;28;20072;-60
2022/03/28 14:02:56;;;;;;;6.00;4.28;;;;;;;;;;5069912;28;20044;-60
2022/03/28 14:05:22;;;;;;;8.57;4.30;;;;;;;;;;5070198;28;20086;-60
2022/03/28 14:07:48;;;;;;;7.32;4.38;;;;;;;;;;5035036;28;20033;-60
2022/03/28 14:10:13;;;;;;;10.07;5.07;;;;;;;;;;5069954;28;20043;-60
2022/03/28 14:12:40;;;;;;;7.78;4.85;;;;;;;;;;5070153;28;20052;-60
2022/03/28 14:15:05;;;;;;;8.32;4.78;;;;;;;;;;5069886;28;20041;-60
2022/03/28 14:17:31;;;;;;;8.98;5.50;;;;;;;;;;5069898;28;20048;-60
2022/03/28 14:20:04;;;;;;;12.25;5.70;;;;;;;;;;5069752;28;20083;-60
2022/03/28 14:22:31;;;;;;;13.35;5.72;;;;;;;;;;5069703;28;20037;-60
2022/03/28 14:24:56;;;;;;;11.52;5.78;;;;;;;;;;5069802;28;20667;-60
2022/03/28 14:27:24;;;;;;;5.35;3.30;;;;;;;;;;5069732;28;20048;-60